Mountain City, Texas
Current Conditions -  °F | °C
As of 2:53 PM on Thursday 27 Nov 2014 (Local Time) from KAUS Reporting Station
Clear Clear  
Wind Chill: 63°   Ceiling: Unl
Heat Index: 63°   Visibility: 10mi
Dew Point: 31°   Wind: 6mph
Humidity: 30%   Direction: 100°E
Pressure: 30.41"   Gusts: NA
Location:  30.0694°N, 97.8797°W
Report Text: KAUS 272053Z 10005KT 10SM CLR 17/M01 A3041 RMK AO2 SLP299 T01721006 56032
Loading
Personal Weather Stations






























Interactive Weather Map New forecast layout! Learn more

10-Day Weather Forecast

Advertisements
Track Severe Weather on mobile